sensor_id;sensor_type;location;lat;lon;timestamp;P1;durP1;ratioP1;P2;durP2;ratioP2
10725;SDS011;5414;59.782;16.378;2023-07-13T00:01:18;3.50;;;1.90;;
10725;SDS011;5414;59.782;16.378;2023-07-13T00:03:44;2.83;;;1.70;;
10725;SDS011;5414;59.782;16.378;2023-07-13T00:06:10;1.90;;;1.80;;
10725;SDS011;5414;59.782;16.378;2023-07-13T00:08:37;5.70;;;2.03;;
10725;SDS011;5414;59.782;16.378;2023-07-13T00:11:04;2.00;;;1.80;;
10725;SDS011;5414;59.782;16.378;2023-07-13T00:13:31;2.10;;;1.90;;
10725;SDS011;5414;59.782;16.378;2023-07-13T00:15:58;3.60;;;2.10;;
10725;SDS011;5414;59.782;16.378;2023-07-13T00:18:26;3.73;;;1.90;;
10725;SDS011;5414;59.782;16.378;2023-07-13T00:20:55;3.87;;;2.00;;
10725;SDS011;5414;59.782;16.378;2023-07-13T00:23:21;2.53;;;2.27;;
10725;SDS011;5414;59.782;16.378;2023-07-13T00:25:47;3.80;;;2.23;;
10725;SDS011;5414;59.782;16.378;2023-07-13T00:28:13;3.33;;;2.20;;
10725;SDS011;5414;59.782;16.378;2023-07-13T00:30:39;4.60;;;2.60;;
10725;SDS011;5414;59.782;16.378;2023-07-13T00:33:05;2.70;;;2.50;;
10725;SDS011;5414;59.782;16.378;2023-07-13T00:35:31;2.53;;;2.23;;
10725;SDS011;5414;59.782;16.378;2023-07-13T00:37:58;3.03;;;2.53;;
10725;SDS011;5414;59.782;16.378;2023-07-13T00:40:24;2.57;;;2.37;;
10725;SDS011;5414;59.782;16.378;2023-07-13T00:42:51;4.70;;;2.70;;
10725;SDS011;5414;59.782;16.378;2023-07-13T00:47:43;3.10;;;2.80;;
10725;SDS011;5414;59.782;16.378;2023-07-13T00:50:12;3.67;;;2.80;;
10725;SDS011;5414;59.782;16.378;2023-07-13T00:52:39;3.10;;;2.90;;
10725;SDS011;5414;59.782;16.378;2023-07-13T00:55:06;3.70;;;3.40;;
10725;SDS011;5414;59.782;16.378;2023-07-13T00:57:34;5.30;;;3.53;;
10725;SDS011;5414;59.782;16.378;2023-07-13T01:00:00;4.00;;;3.60;;
10725;SDS011;5414;59.782;16.378;2023-07-13T01:02:29;4.03;;;3.67;;
10725;SDS011;5414;59.782;16.378;2023-07-13T01:04:56;4.10;;;3.70;;
10725;SDS011;5414;59.782;16.378;2023-07-13T01:07:22;4.70;;;4.30;;
10725;SDS011;5414;59.782;16.378;2023-07-13T01:09:48;4.83;;;4.27;;
10725;SDS011;5414;59.782;16.378;2023-07-13T01:12:14;5.53;;;4.10;;
10725;SDS011;5414;59.782;16.378;2023-07-13T01:14:40;5.90;;;4.50;;
10725;SDS011;5414;59.782;16.378;2023-07-13T01:17:08;5.30;;;4.80;;
10725;SDS011;5414;59.782;16.378;2023-07-13T01:19:42;7.90;;;4.50;;
10725;SDS011;5414;59.782;16.378;2023-07-13T01:22:13;6.17;;;5.00;;
10725;SDS011;5414;59.782;16.378;2023-07-13T01:24:39;8.10;;;5.30;;
10725;SDS011;5414;59.782;16.378;2023-07-13T01:27:07;6.87;;;5.23;;
10725;SDS011;5414;59.782;16.378;2023-07-13T01:29:33;6.53;;;5.20;;
10725;SDS011;5414;59.782;16.378;2023-07-13T01:32:01;6.33;;;5.27;;
10725;SDS011;5414;59.782;16.378;2023-07-13T01:34:28;8.70;;;5.10;;
10725;SDS011;5414;59.782;16.378;2023-07-13T01:36:54;6.90;;;5.63;;
10725;SDS011;5414;59.782;16.378;2023-07-13T01:39:23;6.97;;;5.40;;
10725;SDS011;5414;59.782;16.378;2023-07-13T01:41:50;7.17;;;5.40;;
10725;SDS011;5414;59.782;16.378;2023-07-13T01:44:16;7.50;;;5.70;;
10725;SDS011;5414;59.782;16.378;2023-07-13T01:46:42;7.20;;;5.33;;
10725;SDS011;5414;59.782;16.378;2023-07-13T01:49:08;8.20;;;5.67;;
10725;SDS011;5414;59.782;16.378;2023-07-13T01:51:34;9.23;;;6.37;;
10725;SDS011;5414;59.782;16.378;2023-07-13T01:54:00;7.30;;;6.57;;
10725;SDS011;5414;59.782;16.378;2023-07-13T01:56:26;8.50;;;6.27;;
10725;SDS011;5414;59.782;16.378;2023-07-13T01:58:52;9.53;;;5.67;;
10725;SDS011;5414;59.782;16.378;2023-07-13T02:01:18;8.67;;;6.23;;
10725;SDS011;5414;59.782;16.378;2023-07-13T02:03:44;9.80;;;6.07;;
10725;SDS011;5414;59.782;16.378;2023-07-13T02:06:11;7.37;;;5.27;;
10725;SDS011;5414;59.782;16.378;2023-07-13T02:08:38;7.90;;;5.80;;
10725;SDS011;5414;59.782;16.378;2023-07-13T02:11:04;8.63;;;5.50;;
10725;SDS011;5414;59.782;16.378;2023-07-13T02:13:30;7.07;;;5.63;;
10725;SDS011;5414;59.782;16.378;2023-07-13T02:15:56;8.40;;;5.27;;
10725;SDS011;5414;59.782;16.378;2023-07-13T02:18:22;8.87;;;5.57;;
10725;SDS011;5414;59.782;16.378;2023-07-13T02:20:48;6.80;;;5.23;;
10725;SDS011;5414;59.782;16.378;2023-07-13T02:23:14;7.67;;;5.03;;
10725;SDS011;5414;59.782;16.378;2023-07-13T02:25:40;7.53;;;5.10;;
10725;SDS011;5414;59.782;16.378;2023-07-13T02:28:06;8.70;;;5.50;;
10725;SDS011;5414;59.782;16.378;2023-07-13T02:30:32;6.20;;;5.40;;
10725;SDS011;5414;59.782;16.378;2023-07-13T02:32:58;7.53;;;5.50;;
10725;SDS011;5414;59.782;16.378;2023-07-13T02:35:24;9.60;;;5.90;;
10725;SDS011;5414;59.782;16.378;2023-07-13T02:37:50;7.10;;;5.03;;
10725;SDS011;5414;59.782;16.378;2023-07-13T02:40:16;9.80;;;5.53;;
10725;SDS011;5414;59.782;16.378;2023-07-13T02:42:42;8.33;;;5.50;;
10725;SDS011;5414;59.782;16.378;2023-07-13T02:45:08;5.73;;;5.20;;
10725;SDS011;5414;59.782;16.378;2023-07-13T02:47:35;10.37;;;5.47;;
10725;SDS011;5414;59.782;16.378;2023-07-13T02:50:02;6.23;;;5.00;;
10725;SDS011;5414;59.782;16.378;2023-07-13T02:52:28;6.87;;;4.63;;
10725;SDS011;5414;59.782;16.378;2023-07-13T02:54:54;5.73;;;4.90;;
10725;SDS011;5414;59.782;16.378;2023-07-13T02:57:20;7.63;;;5.03;;
10725;SDS011;5414;59.782;16.378;2023-07-13T02:59:46;6.03;;;4.73;;
10725;SDS011;5414;59.782;16.378;2023-07-13T03:02:12;5.67;;;4.70;;
10725;SDS011;5414;59.782;16.378;2023-07-13T03:04:38;7.33;;;5.03;;
10725;SDS011;5414;59.782;16.378;2023-07-13T03:07:06;7.27;;;4.67;;
10725;SDS011;5414;59.782;16.378;2023-07-13T03:09:32;5.50;;;4.20;;
10725;SDS011;5414;59.782;16.378;2023-07-13T03:11:58;6.47;;;4.20;;
10725;SDS011;5414;59.782;16.378;2023-07-13T03:14:24;7.20;;;4.37;;
10725;SDS011;5414;59.782;16.378;2023-07-13T03:16:50;5.03;;;3.97;;
10725;SDS011;5414;59.782;16.378;2023-07-13T03:19:17;5.43;;;4.03;;
10725;SDS011;5414;59.782;16.378;2023-07-13T03:21:43;5.60;;;4.57;;
10725;SDS011;5414;59.782;16.378;2023-07-13T03:24:09;5.93;;;3.93;;
10725;SDS011;5414;59.782;16.378;2023-07-13T03:26:35;6.73;;;4.10;;
10725;SDS011;5414;59.782;16.378;2023-07-13T03:29:01;6.57;;;3.80;;
10725;SDS011;5414;59.782;16.378;2023-07-13T03:31:31;5.17;;;3.67;;
10725;SDS011;5414;59.782;16.378;2023-07-13T03:33:57;4.93;;;3.80;;
10725;SDS011;5414;59.782;16.378;2023-07-13T03:36:24;6.27;;;3.90;;
10725;SDS011;5414;59.782;16.378;2023-07-13T03:38:52;6.20;;;4.20;;
10725;SDS011;5414;59.782;16.378;2023-07-13T03:41:19;4.43;;;3.63;;
10725;SDS011;5414;59.782;16.378;2023-07-13T03:43:45;6.20;;;4.00;;
10725;SDS011;5414;59.782;16.378;2023-07-13T03:46:13;6.83;;;3.80;;
10725;SDS011;5414;59.782;16.378;2023-07-13T03:48:39;6.93;;;3.67;;
10725;SDS011;5414;59.782;16.378;2023-07-13T03:51:07;6.97;;;3.43;;
10725;SDS011;5414;59.782;16.378;2023-07-13T03:53:37;9.90;;;4.07;;
10725;SDS011;5414;59.782;16.378;2023-07-13T03:56:03;6.83;;;4.00;;
10725;SDS011;5414;59.782;16.378;2023-07-13T03:58:33;6.33;;;3.70;;
10725;SDS011;5414;59.782;16.378;2023-07-13T04:01:00;4.50;;;3.27;;
10725;SDS011;5414;59.782;16.378;2023-07-13T04:03:27;4.97;;;3.50;;
10725;SDS011;5414;59.782;16.378;2023-07-13T04:05:54;5.93;;;4.10;;
10725;SDS011;5414;59.782;16.378;2023-07-13T04:08:25;6.57;;;3.60;;
10725;SDS011;5414;59.782;16.378;2023-07-13T04:10:51;6.77;;;3.80;;
10725;SDS011;5414;59.782;16.378;2023-07-13T04:13:17;7.33;;;3.53;;
10725;SDS011;5414;59.782;16.378;2023-07-13T04:15:43;5.47;;;3.57;;
10725;SDS011;5414;59.782;16.378;2023-07-13T04:18:09;6.73;;;3.97;;
10725;SDS011;5414;59.782;16.378;2023-07-13T04:20:35;6.27;;;3.63;;
10725;SDS011;5414;59.782;16.378;2023-07-13T04:23:01;4.77;;;3.53;;
10725;SDS011;5414;59.782;16.378;2023-07-13T04:25:27;4.70;;;3.80;;
10725;SDS011;5414;59.782;16.378;2023-07-13T04:27:53;5.97;;;3.63;;
10725;SDS011;5414;59.782;16.378;2023-07-13T04:30:20;5.93;;;3.40;;
10725;SDS011;5414;59.782;16.378;2023-07-13T04:32:46;4.70;;;3.07;;
10725;SDS011;5414;59.782;16.378;2023-07-13T04:35:12;6.17;;;3.47;;
10725;SDS011;5414;59.782;16.378;2023-07-13T04:37:39;6.20;;;3.50;;
10725;SDS011;5414;59.782;16.378;2023-07-13T04:40:06;10.80;;;4.10;;
10725;SDS011;5414;59.782;16.378;2023-07-13T04:42:35;6.03;;;3.50;;
10725;SDS011;5414;59.782;16.378;2023-07-13T04:45:01;7.23;;;3.67;;
10725;SDS011;5414;59.782;16.378;2023-07-13T04:47:29;4.87;;;3.40;;
10725;SDS011;5414;59.782;16.378;2023-07-13T04:49:55;6.23;;;3.53;;
10725;SDS011;5414;59.782;16.378;2023-07-13T04:52:22;5.23;;;3.47;;
10725;SDS011;5414;59.782;16.378;2023-07-13T04:54:48;7.00;;;3.77;;
10725;SDS011;5414;59.782;16.378;2023-07-13T04:57:14;5.77;;;3.80;;
10725;SDS011;5414;59.782;16.378;2023-07-13T04:59:41;5.80;;;3.73;;
10725;SDS011;5414;59.782;16.378;2023-07-13T05:02:07;4.93;;;3.90;;
10725;SDS011;5414;59.782;16.378;2023-07-13T05:04:33;7.33;;;3.83;;
10725;SDS011;5414;59.782;16.378;2023-07-13T05:06:59;8.17;;;3.80;;
10725;SDS011;5414;59.782;16.378;2023-07-13T05:09:25;6.80;;;3.83;;
10725;SDS011;5414;59.782;16.378;2023-07-13T05:11:51;5.90;;;3.50;;
10725;SDS011;5414;59.782;16.378;2023-07-13T05:14:17;8.43;;;3.57;;
10725;SDS011;5414;59.782;16.378;2023-07-13T05:16:43;5.67;;;3.63;;
10725;SDS011;5414;59.782;16.378;2023-07-13T05:19:09;4.93;;;3.00;;
10725;SDS011;5414;59.782;16.378;2023-07-13T05:21:36;6.07;;;3.50;;
10725;SDS011;5414;59.782;16.378;2023-07-13T05:24:02;6.60;;;3.40;;
10725;SDS011;5414;59.782;16.378;2023-07-13T05:26:28;3.50;;;3.00;;
10725;SDS011;5414;59.782;16.378;2023-07-13T05:28:54;5.60;;;3.17;;
10725;SDS011;5414;59.782;16.378;2023-07-13T05:31:20;6.70;;;3.20;;
10725;SDS011;5414;59.782;16.378;2023-07-13T05:33:46;5.37;;;3.20;;
10725;SDS011;5414;59.782;16.378;2023-07-13T05:36:12;6.43;;;3.30;;
10725;SDS011;5414;59.782;16.378;2023-07-13T05:38:38;7.83;;;3.67;;
10725;SDS011;5414;59.782;16.378;2023-07-13T05:41:05;6.40;;;3.40;;
10725;SDS011;5414;59.782;16.378;2023-07-13T05:43:31;7.20;;;3.23;;
10725;SDS011;5414;59.782;16.378;2023-07-13T05:45:57;6.90;;;3.10;;
10725;SDS011;5414;59.782;16.378;2023-07-13T05:48:23;7.10;;;3.30;;
10725;SDS011;5414;59.782;16.378;2023-07-13T05:50:49;8.77;;;3.57;;
10725;SDS011;5414;59.782;16.378;2023-07-13T05:53:15;5.23;;;2.60;;
10725;SDS011;5414;59.782;16.378;2023-07-13T05:55:45;5.50;;;3.30;;
10725;SDS011;5414;59.782;16.378;2023-07-13T05:58:18;5.47;;;3.00;;
10725;SDS011;5414;59.782;16.378;2023-07-13T06:00:44;6.57;;;3.20;;
10725;SDS011;5414;59.782;16.378;2023-07-13T06:03:10;7.53;;;2.90;;
10725;SDS011;5414;59.782;16.378;2023-07-13T06:05:37;6.03;;;2.80;;
10725;SDS011;5414;59.782;16.378;2023-07-13T06:08:04;5.70;;;2.90;;
10725;SDS011;5414;59.782;16.378;2023-07-13T06:10:34;4.73;;;2.43;;
10725;SDS011;5414;59.782;16.378;2023-07-13T06:13:00;7.03;;;2.20;;
10725;SDS011;5414;59.782;16.378;2023-07-13T06:15:26;5.87;;;2.40;;
10725;SDS011;5414;59.782;16.378;2023-07-13T06:17:52;4.37;;;2.10;;
10725;SDS011;5414;59.782;16.378;2023-07-13T06:20:18;5.20;;;2.40;;
10725;SDS011;5414;59.782;16.378;2023-07-13T06:22:44;4.30;;;2.57;;
10725;SDS011;5414;59.782;16.378;2023-07-13T06:25:10;6.63;;;2.53;;
10725;SDS011;5414;59.782;16.378;2023-07-13T06:27:36;5.47;;;2.23;;
10725;SDS011;5414;59.782;16.378;2023-07-13T06:30:02;6.90;;;2.70;;
10725;SDS011;5414;59.782;16.378;2023-07-13T06:32:28;5.87;;;2.23;;
10725;SDS011;5414;59.782;16.378;2023-07-13T06:34:54;5.33;;;2.50;;
10725;SDS011;5414;59.782;16.378;2023-07-13T06:37:20;5.27;;;2.57;;
10725;SDS011;5414;59.782;16.378;2023-07-13T06:39:46;6.10;;;2.40;;
10725;SDS011;5414;59.782;16.378;2023-07-13T06:42:12;4.90;;;2.50;;
10725;SDS011;5414;59.782;16.378;2023-07-13T06:44:38;5.63;;;2.23;;
10725;SDS011;5414;59.782;16.378;2023-07-13T06:47:04;4.60;;;2.63;;
10725;SDS011;5414;59.782;16.378;2023-07-13T06:49:31;4.20;;;2.27;;
10725;SDS011;5414;59.782;16.378;2023-07-13T06:51:56;4.07;;;2.13;;
10725;SDS011;5414;59.782;16.378;2023-07-13T06:54:22;4.83;;;2.47;;
10725;SDS011;5414;59.782;16.378;2023-07-13T06:56:48;5.00;;;2.40;;
10725;SDS011;5414;59.782;16.378;2023-07-13T06:59:14;5.20;;;2.43;;
10725;SDS011;5414;59.782;16.378;2023-07-13T07:01:40;6.10;;;2.33;;
10725;SDS011;5414;59.782;16.378;2023-07-13T07:04:07;5.00;;;2.30;;
10725;SDS011;5414;59.782;16.378;2023-07-13T07:06:33;4.30;;;2.20;;
10725;SDS011;5414;59.782;16.378;2023-07-13T07:08:59;5.63;;;2.40;;
10725;SDS011;5414;59.782;16.378;2023-07-13T07:11:25;6.67;;;2.30;;
10725;SDS011;5414;59.782;16.378;2023-07-13T07:13:52;5.23;;;2.13;;
10725;SDS011;5414;59.782;16.378;2023-07-13T07:16:18;4.17;;;2.27;;
10725;SDS011;5414;59.782;16.378;2023-07-13T07:18:44;5.00;;;2.20;;
10725;SDS011;5414;59.782;16.378;2023-07-13T07:21:11;6.23;;;2.43;;
10725;SDS011;5414;59.782;16.378;2023-07-13T07:23:37;4.90;;;2.13;;
10725;SDS011;5414;59.782;16.378;2023-07-13T07:26:03;5.43;;;2.10;;
10725;SDS011;5414;59.782;16.378;2023-07-13T07:28:29;4.13;;;2.13;;
10725;SDS011;5414;59.782;16.378;2023-07-13T07:30:56;4.47;;;2.27;;
10725;SDS011;5414;59.782;16.378;2023-07-13T07:33:22;5.17;;;2.20;;
10725;SDS011;5414;59.782;16.378;2023-07-13T07:35:49;5.90;;;2.40;;
10725;SDS011;5414;59.782;16.378;2023-07-13T07:38:15;3.97;;;2.47;;
10725;SDS011;5414;59.782;16.378;2023-07-13T07:40:41;4.30;;;2.20;;
10725;SDS011;5414;59.782;16.378;2023-07-13T07:43:08;6.87;;;2.30;;
10725;SDS011;5414;59.782;16.378;2023-07-13T07:45:34;5.20;;;2.43;;
10725;SDS011;5414;59.782;16.378;2023-07-13T07:48:02;6.57;;;2.40;;
10725;SDS011;5414;59.782;16.378;2023-07-13T07:50:28;4.97;;;2.17;;
10725;SDS011;5414;59.782;16.378;2023-07-13T07:52:54;3.30;;;1.90;;
10725;SDS011;5414;59.782;16.378;2023-07-13T07:55:21;5.53;;;2.40;;
10725;SDS011;5414;59.782;16.378;2023-07-13T07:57:47;4.57;;;2.27;;
10725;SDS011;5414;59.782;16.378;2023-07-13T08:00:13;5.07;;;2.07;;
10725;SDS011;5414;59.782;16.378;2023-07-13T08:02:39;5.13;;;2.30;;
10725;SDS011;5414;59.782;16.378;2023-07-13T08:05:06;6.50;;;2.40;;
10725;SDS011;5414;59.782;16.378;2023-07-13T08:07:33;4.43;;;1.80;;
10725;SDS011;5414;59.782;16.378;2023-07-13T08:09:59;5.50;;;2.03;;
10725;SDS011;5414;59.782;16.378;2023-07-13T08:12:25;4.90;;;2.10;;
10725;SDS011;5414;59.782;16.378;2023-07-13T08:14:51;5.67;;;2.13;;
10725;SDS011;5414;59.782;16.378;2023-07-13T08:17:19;5.07;;;1.73;;
10725;SDS011;5414;59.782;16.378;2023-07-13T08:19:45;4.83;;;1.70;;
10725;SDS011;5414;59.782;16.378;2023-07-13T08:22:11;3.80;;;1.80;;
10725;SDS011;5414;59.782;16.378;2023-07-13T08:24:38;4.90;;;1.63;;
10725;SDS011;5414;59.782;16.378;2023-07-13T08:27:04;5.07;;;1.80;;
10725;SDS011;5414;59.782;16.378;2023-07-13T08:29:30;5.80;;;1.80;;
10725;SDS011;5414;59.782;16.378;2023-07-13T08:31:59;3.50;;;1.70;;
10725;SDS011;5414;59.782;16.378;2023-07-13T08:34:25;4.23;;;1.93;;
10725;SDS011;5414;59.782;16.378;2023-07-13T08:36:51;4.10;;;2.03;;
10725;SDS011;5414;59.782;16.378;2023-07-13T08:39:17;3.80;;;2.10;;
10725;SDS011;5414;59.782;16.378;2023-07-13T08:41:45;4.30;;;2.00;;
10725;SDS011;5414;59.782;16.378;2023-07-13T08:44:17;5.27;;;1.80;;
10725;SDS011;5414;59.782;16.378;2023-07-13T08:46:46;3.80;;;1.80;;
10725;SDS011;5414;59.782;16.378;2023-07-13T08:49:14;5.43;;;2.20;;
10725;SDS011;5414;59.782;16.378;2023-07-13T08:54:53;4.43;;;2.00;;
10725;SDS011;5414;59.782;16.378;2023-07-13T08:56:54;4.33;;;1.50;;
10725;SDS011;5414;59.782;16.378;2023-07-13T08:59:24;4.20;;;1.90;;
10725;SDS011;5414;59.782;16.378;2023-07-13T09:01:57;4.00;;;1.70;;
10725;SDS011;5414;59.782;16.378;2023-07-13T09:04:32;5.13;;;1.80;;
10725;SDS011;5414;59.782;16.378;2023-07-13T09:10:03;3.27;;;1.37;;
10725;SDS011;5414;59.782;16.378;2023-07-13T09:14:48;4.63;;;1.80;;
10725;SDS011;5414;59.782;16.378;2023-07-13T09:17:18;3.70;;;2.00;;
10725;SDS011;5414;59.782;16.378;2023-07-13T09:19:46;4.47;;;1.90;;
10725;SDS011;5414;59.782;16.378;2023-07-13T09:22:15;3.73;;;1.77;;
10725;SDS011;5414;59.782;16.378;2023-07-13T09:27:17;5.77;;;1.77;;
10725;SDS011;5414;59.782;16.378;2023-07-13T09:29:46;5.70;;;1.63;;
10725;SDS011;5414;59.782;16.378;2023-07-13T09:32:14;3.90;;;1.77;;
10725;SDS011;5414;59.782;16.378;2023-07-13T09:34:45;4.83;;;1.73;;
10725;SDS011;5414;59.782;16.378;2023-07-13T09:37:16;3.17;;;1.30;;
10725;SDS011;5414;59.782;16.378;2023-07-13T09:39:42;3.60;;;1.50;;
10725;SDS011;5414;59.782;16.378;2023-07-13T09:42:16;4.37;;;1.83;;
10725;SDS011;5414;59.782;16.378;2023-07-13T09:44:58;4.70;;;2.00;;
10725;SDS011;5414;59.782;16.378;2023-07-13T09:47:38;2.90;;;1.70;;
10725;SDS011;5414;59.782;16.378;2023-07-13T09:50:06;3.80;;;1.87;;
10725;SDS011;5414;59.782;16.378;2023-07-13T09:52:40;4.83;;;1.83;;
10725;SDS011;5414;59.782;16.378;2023-07-13T09:55:22;3.17;;;1.47;;
10725;SDS011;5414;59.782;16.378;2023-07-13T09:57:48;4.17;;;1.40;;
10725;SDS011;5414;59.782;16.378;2023-07-13T10:00:24;3.50;;;1.50;;
10725;SDS011;5414;59.782;16.378;2023-07-13T10:02:58;4.90;;;1.60;;
10725;SDS011;5414;59.782;16.378;2023-07-13T10:05:24;2.93;;;1.50;;
10725;SDS011;5414;59.782;16.378;2023-07-13T10:07:50;2.60;;;1.50;;
10725;SDS011;5414;59.782;16.378;2023-07-13T10:10:18;4.30;;;1.40;;
10725;SDS011;5414;59.782;16.378;2023-07-13T10:12:46;2.20;;;1.30;;
10725;SDS011;5414;59.782;16.378;2023-07-13T10:15:14;2.87;;;1.30;;
10725;SDS011;5414;59.782;16.378;2023-07-13T10:17:41;2.87;;;1.37;;
10725;SDS011;5414;59.782;16.378;2023-07-13T10:20:09;4.30;;;1.40;;
10725;SDS011;5414;59.782;16.378;2023-07-13T10:25:24;2.20;;;1.33;;
10725;SDS011;5414;59.782;16.378;2023-07-13T10:27:52;3.93;;;1.40;;
10725;SDS011;5414;59.782;16.378;2023-07-13T10:30:23;4.17;;;1.33;;
10725;SDS011;5414;59.782;16.378;2023-07-13T10:32:53;3.40;;;1.80;;
10725;SDS011;5414;59.782;16.378;2023-07-13T10:35:19;6.07;;;1.70;;
10725;SDS011;5414;59.782;16.378;2023-07-13T10:40:14;2.87;;;1.50;;
10725;SDS011;5414;59.782;16.378;2023-07-13T10:42:43;4.43;;;1.57;;
10725;SDS011;5414;59.782;16.378;2023-07-13T10:45:18;3.03;;;1.40;;
10725;SDS011;5414;59.782;16.378;2023-07-13T10:47:45;3.47;;;1.40;;
10725;SDS011;5414;59.782;16.378;2023-07-13T10:50:21;3.23;;;1.53;;
10725;SDS011;5414;59.782;16.378;2023-07-13T10:52:49;4.13;;;1.60;;
10725;SDS011;5414;59.782;16.378;2023-07-13T10:58:11;3.37;;;1.60;;
10725;SDS011;5414;59.782;16.378;2023-07-13T11:00:48;3.47;;;1.50;;
10725;SDS011;5414;59.782;16.378;2023-07-13T11:03:15;2.47;;;1.20;;
10725;SDS011;5414;59.782;16.378;2023-07-13T11:05:43;3.22;;;1.45;;
10725;SDS011;5414;59.782;16.378;2023-07-13T11:10:49;3.00;;;1.17;;
10725;SDS011;5414;59.782;16.378;2023-07-13T11:13:35;5.25;;;1.38;;
10725;SDS011;5414;59.782;16.378;2023-07-13T11:16:02;2.55;;;1.38;;
10725;SDS011;5414;59.782;16.378;2023-07-13T11:18:37;2.22;;;1.25;;
10725;SDS011;5414;59.782;16.378;2023-07-13T11:21:17;3.67;;;1.33;;
10725;SDS011;5414;59.782;16.378;2023-07-13T11:23:44;2.42;;;1.25;;
10725;SDS011;5414;59.782;16.378;2023-07-13T11:28:56;2.90;;;1.47;;
10725;SDS011;5414;59.782;16.378;2023-07-13T11:31:22;2.80;;;1.40;;
10725;SDS011;5414;59.782;16.378;2023-07-13T11:33:53;3.17;;;1.40;;
10725;SDS011;5414;59.782;16.378;2023-07-13T11:36:21;5.30;;;1.70;;
10725;SDS011;5414;59.782;16.378;2023-07-13T11:43:55;2.57;;;1.33;;
10725;SDS011;5414;59.782;16.378;2023-07-13T11:46:23;2.73;;;1.30;;
10725;SDS011;5414;59.782;16.378;2023-07-13T11:48:49;3.63;;;1.40;;
10725;SDS011;5414;59.782;16.378;2023-07-13T11:51:21;2.23;;;1.20;;
10725;SDS011;5414;59.782;16.378;2023-07-13T11:53:48;2.47;;;1.50;;
10725;SDS011;5414;59.782;16.378;2023-07-13T11:56:16;2.07;;;1.20;;
10725;SDS011;5414;59.782;16.378;2023-07-13T11:58:42;3.70;;;1.30;;
10725;SDS011;5414;59.782;16.378;2023-07-13T12:01:16;2.67;;;1.30;;
10725;SDS011;5414;59.782;16.378;2023-07-13T12:03:43;2.90;;;1.27;;
10725;SDS011;5414;59.782;16.378;2023-07-13T12:09:11;2.70;;;1.37;;
10725;SDS011;5414;59.782;16.378;2023-07-13T12:11:39;3.67;;;1.60;;
10725;SDS011;5414;59.782;16.378;2023-07-13T12:14:06;1.83;;;1.20;;
10725;SDS011;5414;59.782;16.378;2023-07-13T12:16:32;1.77;;;1.30;;
10725;SDS011;5414;59.782;16.378;2023-07-13T12:18:59;3.40;;;1.53;;
10725;SDS011;5414;59.782;16.378;2023-07-13T12:21:32;2.77;;;1.47;;
10725;SDS011;5414;59.782;16.378;2023-07-13T12:23:59;2.63;;;1.33;;
10725;SDS011;5414;59.782;16.378;2023-07-13T12:26:27;2.50;;;1.63;;
10725;SDS011;5414;59.782;16.378;2023-07-13T12:28:55;3.30;;;1.30;;
10725;SDS011;5414;59.782;16.378;2023-07-13T12:34:18;2.13;;;1.47;;
10725;SDS011;5414;59.782;16.378;2023-07-13T12:36:47;2.77;;;1.50;;
10725;SDS011;5414;59.782;16.378;2023-07-13T12:41:40;3.67;;;1.57;;
10725;SDS011;5414;59.782;16.378;2023-07-13T12:44:13;2.80;;;1.60;;
10725;SDS011;5414;59.782;16.378;2023-07-13T12:46:39;3.47;;;1.67;;
10725;SDS011;5414;59.782;16.378;2023-07-13T12:49:16;3.60;;;1.80;;
10725;SDS011;5414;59.782;16.378;2023-07-13T12:51:43;4.47;;;1.53;;
10725;SDS011;5414;59.782;16.378;2023-07-13T12:54:14;2.13;;;1.23;;
10725;SDS011;5414;59.782;16.378;2023-07-13T12:56:41;3.13;;;1.50;;
10725;SDS011;5414;59.782;16.378;2023-07-13T12:59:08;2.87;;;1.40;;
10725;SDS011;5414;59.782;16.378;2023-07-13T13:01:40;2.27;;;1.50;;
10725;SDS011;5414;59.782;16.378;2023-07-13T13:04:08;1.80;;;1.20;;
10725;SDS011;5414;59.782;16.378;2023-07-13T13:06:36;1.73;;;1.40;;
10725;SDS011;5414;59.782;16.378;2023-07-13T13:09:02;2.80;;;1.33;;
10725;SDS011;5414;59.782;16.378;2023-07-13T13:11:29;2.20;;;1.50;;
10725;SDS011;5414;59.782;16.378;2023-07-13T13:13:56;2.27;;;1.20;;
10725;SDS011;5414;59.782;16.378;2023-07-13T13:18:56;1.83;;;1.40;;
10725;SDS011;5414;59.782;16.378;2023-07-13T13:21:23;3.33;;;1.33;;
10725;SDS011;5414;59.782;16.378;2023-07-13T13:23:50;3.80;;;1.30;;
10725;SDS011;5414;59.782;16.378;2023-07-13T13:26:23;3.47;;;1.50;;
10725;SDS011;5414;59.782;16.378;2023-07-13T13:28:49;2.43;;;1.33;;
10725;SDS011;5414;59.782;16.378;2023-07-13T13:31:16;2.03;;;1.40;;
10725;SDS011;5414;59.782;16.378;2023-07-13T13:33:42;2.10;;;1.30;;
10725;SDS011;5414;59.782;16.378;2023-07-13T13:36:14;2.33;;;1.37;;
10725;SDS011;5414;59.782;16.378;2023-07-13T13:38:40;2.53;;;1.20;;
10725;SDS011;5414;59.782;16.378;2023-07-13T13:41:07;2.73;;;1.30;;
10725;SDS011;5414;59.782;16.378;2023-07-13T13:43:35;1.93;;;1.40;;
10725;SDS011;5414;59.782;16.378;2023-07-13T13:46:01;2.20;;;1.40;;
10725;SDS011;5414;59.782;16.378;2023-07-13T13:48:33;2.00;;;1.40;;
10725;SDS011;5414;59.782;16.378;2023-07-13T13:51:00;1.97;;;1.30;;
10725;SDS011;5414;59.782;16.378;2023-07-13T13:53:26;2.80;;;1.50;;
10725;SDS011;5414;59.782;16.378;2023-07-13T13:55:53;2.93;;;1.40;;
10725;SDS011;5414;59.782;16.378;2023-07-13T13:58:19;2.73;;;1.40;;
10725;SDS011;5414;59.782;16.378;2023-07-13T14:00:45;1.93;;;1.20;;
10725;SDS011;5414;59.782;16.378;2023-07-13T14:03:18;2.93;;;1.70;;
10725;SDS011;5414;59.782;16.378;2023-07-13T14:05:45;2.17;;;1.60;;
10725;SDS011;5414;59.782;16.378;2023-07-13T14:08:12;1.60;;;1.20;;
10725;SDS011;5414;59.782;16.378;2023-07-13T14:10:39;2.37;;;1.27;;
10725;SDS011;5414;59.782;16.378;2023-07-13T14:13:07;2.40;;;1.40;;
10725;SDS011;5414;59.782;16.378;2023-07-13T14:15:37;2.63;;;1.30;;
10725;SDS011;5414;59.782;16.378;2023-07-13T14:18:03;3.00;;;1.30;;
10725;SDS011;5414;59.782;16.378;2023-07-13T14:20:29;2.37;;;1.40;;
10725;SDS011;5414;59.782;16.378;2023-07-13T14:22:55;2.47;;;1.13;;
10725;SDS011;5414;59.782;16.378;2023-07-13T14:25:21;1.77;;;1.20;;
10725;SDS011;5414;59.782;16.378;2023-07-13T14:27:53;2.53;;;1.40;;
10725;SDS011;5414;59.782;16.378;2023-07-13T14:30:22;3.43;;;1.53;;
10725;SDS011;5414;59.782;16.378;2023-07-13T14:32:48;2.77;;;1.20;;
10725;SDS011;5414;59.782;16.378;2023-07-13T14:35:15;2.50;;;1.30;;
10725;SDS011;5414;59.782;16.378;2023-07-13T14:37:41;7.97;;;1.40;;
10725;SDS011;5414;59.782;16.378;2023-07-13T14:40:15;1.67;;;1.30;;
10725;SDS011;5414;59.782;16.378;2023-07-13T14:42:42;4.40;;;1.60;;
10725;SDS011;5414;59.782;16.378;2023-07-13T14:45:17;2.20;;;1.30;;
10725;SDS011;5414;59.782;16.378;2023-07-13T14:47:44;3.77;;;1.37;;
10725;SDS011;5414;59.782;16.378;2023-07-13T14:50:20;2.10;;;1.43;;
10725;SDS011;5414;59.782;16.378;2023-07-13T14:52:47;2.03;;;1.43;;
10725;SDS011;5414;59.782;16.378;2023-07-13T14:55:15;1.33;;;1.13;;
10725;SDS011;5414;59.782;16.378;2023-07-13T14:57:41;1.80;;;1.30;;
10725;SDS011;5414;59.782;16.378;2023-07-13T15:00:18;2.10;;;1.30;;
10725;SDS011;5414;59.782;16.378;2023-07-13T15:02:47;4.17;;;1.43;;
10725;SDS011;5414;59.782;16.378;2023-07-13T15:05:15;1.97;;;1.40;;
10725;SDS011;5414;59.782;16.378;2023-07-13T15:07:41;2.83;;;1.53;;
10725;SDS011;5414;59.782;16.378;2023-07-13T15:10:15;1.93;;;1.40;;
10725;SDS011;5414;59.782;16.378;2023-07-13T15:12:41;1.40;;;1.30;;
10725;SDS011;5414;59.782;16.378;2023-07-13T15:15:07;1.80;;;1.37;;
10725;SDS011;5414;59.782;16.378;2023-07-13T15:17:38;1.67;;;1.30;;
10725;SDS011;5414;59.782;16.378;2023-07-13T15:22:49;3.10;;;1.37;;
10725;SDS011;5414;59.782;16.378;2023-07-13T15:25:16;2.80;;;1.63;;
10725;SDS011;5414;59.782;16.378;2023-07-13T15:27:43;1.87;;;1.53;;
10725;SDS011;5414;59.782;16.378;2023-07-13T15:30:09;2.20;;;1.40;;
10725;SDS011;5414;59.782;16.378;2023-07-13T15:32:35;2.17;;;1.33;;
10725;SDS011;5414;59.782;16.378;2023-07-13T15:35:01;2.60;;;1.33;;